sensor_id;sensor_type;location;lat;lon;timestamp;pressure;altitude;pressure_sealevel;temperature;humidity
75640;BME280;64233;51.486;6.332;2023-11-22T00:02:04;102129.19;;;2.75;100.00
75640;BME280;64233;51.486;6.332;2023-11-22T00:04:29;102141.13;;;2.79;100.00
75640;BME280;64233;51.486;6.332;2023-11-22T00:06:54;102135.19;;;2.85;100.00
75640;BME280;64233;51.486;6.332;2023-11-22T00:09:20;102130.19;;;2.90;100.00
75640;BME280;64233;51.486;6.332;2023-11-22T00:11:48;102121.59;;;2.97;100.00
75640;BME280;64233;51.486;6.332;2023-11-22T00:14:13;102112.31;;;3.01;100.00
75640;BME280;64233;51.486;6.332;2023-11-22T00:16:39;102112.94;;;3.03;100.00
75640;BME280;64233;51.486;6.332;2023-11-22T00:19:05;102064.56;;;3.01;100.00
75640;BME280;64233;51.486;6.332;2023-11-22T00:21:31;102068.53;;;2.97;100.00
75640;BME280;64233;51.486;6.332;2023-11-22T00:23:56;102039.19;;;2.90;100.00
75640;BME280;64233;51.486;6.332;2023-11-22T00:26:21;102049.47;;;2.85;100.00
75640;BME280;64233;51.486;6.332;2023-11-22T00:28:47;102036.91;;;2.79;100.00
75640;BME280;64233;51.486;6.332;2023-11-22T00:31:12;102042.88;;;2.72;100.00
75640;BME280;64233;51.486;6.332;2023-11-22T00:33:39;102062.09;;;2.66;100.00
75640;BME280;64233;51.486;6.332;2023-11-22T00:36:05;102058.09;;;2.62;100.00
75640;BME280;64233;51.486;6.332;2023-11-22T00:38:33;102055.78;;;2.59;100.00
75640;BME280;64233;51.486;6.332;2023-11-22T00:41:01;102059.78;;;2.55;100.00
75640;BME280;64233;51.486;6.332;2023-11-22T00:43:27;102079.97;;;2.48;100.00
75640;BME280;64233;51.486;6.332;2023-11-22T00:45:52;102107.16;;;2.50;100.00
75640;BME280;64233;51.486;6.332;2023-11-22T00:48:17;102076.34;;;2.40;100.00
75640;BME280;64233;51.486;6.332;2023-11-22T00:50:43;102097.72;;;2.39;100.00
75640;BME280;64233;51.486;6.332;2023-11-22T00:53:08;102108.63;;;2.28;100.00
75640;BME280;64233;51.486;6.332;2023-11-22T00:55:34;102122.53;;;2.21;100.00
75640;BME280;64233;51.486;6.332;2023-11-22T00:58:00;102110.44;;;2.19;100.00
75640;BME280;64233;51.486;6.332;2023-11-22T01:00:29;102137.09;;;2.17;100.00
75640;BME280;64233;51.486;6.332;2023-11-22T01:02:54;102139.41;;;2.20;100.00
75640;BME280;64233;51.486;6.332;2023-11-22T01:05:19;102140.56;;;2.18;100.00
75640;BME280;64233;51.486;6.332;2023-11-22T01:07:45;102147.50;;;2.11;100.00
75640;BME280;64233;51.486;6.332;2023-11-22T01:10:10;102141.66;;;1.99;100.00
75640;BME280;64233;51.486;6.332;2023-11-22T01:12:36;102152.59;;;2.04;100.00
75640;BME280;64233;51.486;6.332;2023-11-22T01:15:01;102149.63;;;1.99;100.00
75640;BME280;64233;51.486;6.332;2023-11-22T01:17:26;102169.63;;;1.93;100.00
75640;BME280;64233;51.486;6.332;2023-11-22T01:19:52;102189.78;;;1.94;100.00
75640;BME280;64233;51.486;6.332;2023-11-22T01:22:17;102214.81;;;1.92;100.00
75640;BME280;64233;51.486;6.332;2023-11-22T01:24:43;102215.25;;;1.87;100.00
75640;BME280;64233;51.486;6.332;2023-11-22T01:27:08;102263.25;;;1.84;100.00
75640;BME280;64233;51.486;6.332;2023-11-22T01:29:33;102261.06;;;1.79;100.00
75640;BME280;64233;51.486;6.332;2023-11-22T01:31:59;102260.25;;;1.79;100.00
75640;BME280;64233;51.486;6.332;2023-11-22T01:34:25;102247.97;;;1.78;100.00
75640;BME280;64233;51.486;6.332;2023-11-22T01:36:50;102248.16;;;1.76;100.00
75640;BME280;64233;51.486;6.332;2023-11-22T01:39:16;102245.50;;;1.76;100.00
75640;BME280;64233;51.486;6.332;2023-11-22T01:41:44;102248.97;;;1.77;100.00
75640;BME280;64233;51.486;6.332;2023-11-22T01:44:09;102216.53;;;1.75;100.00
75640;BME280;64233;51.486;6.332;2023-11-22T01:46:35;102251.41;;;1.70;100.00
75640;BME280;64233;51.486;6.332;2023-11-22T01:49:00;102251.56;;;1.68;100.00
75640;BME280;64233;51.486;6.332;2023-11-22T01:51:26;102249.91;;;1.67;100.00
75640;BME280;64233;51.486;6.332;2023-11-22T01:53:53;102263.16;;;1.67;100.00
75640;BME280;64233;51.486;6.332;2023-11-22T01:56:20;102287.00;;;1.76;100.00
75640;BME280;64233;51.486;6.332;2023-11-22T01:58:49;102273.00;;;1.83;100.00
75640;BME280;64233;51.486;6.332;2023-11-22T02:01:14;102269.41;;;1.93;100.00
75640;BME280;64233;51.486;6.332;2023-11-22T02:03:41;102266.75;;;1.93;100.00
75640;BME280;64233;51.486;6.332;2023-11-22T02:06:07;102253.69;;;1.91;100.00
75640;BME280;64233;51.486;6.332;2023-11-22T02:08:35;102239.63;;;1.91;100.00
75640;BME280;64233;51.486;6.332;2023-11-22T02:11:01;102230.97;;;1.88;100.00
75640;BME280;64233;51.486;6.332;2023-11-22T02:13:32;102247.72;;;1.89;100.00
75640;BME280;64233;51.486;6.332;2023-11-22T02:15:58;102263.44;;;1.91;100.00
75640;BME280;64233;51.486;6.332;2023-11-22T02:18:26;102255.34;;;1.92;100.00
75640;BME280;64233;51.486;6.332;2023-11-22T02:20:52;102265.47;;;1.97;100.00
75640;BME280;64233;51.486;6.332;2023-11-22T02:23:17;102251.91;;;2.00;100.00
75640;BME280;64233;51.486;6.332;2023-11-22T02:25:43;102249.94;;;2.02;100.00
75640;BME280;64233;51.486;6.332;2023-11-22T02:28:09;102237.69;;;2.01;100.00
75640;BME280;64233;51.486;6.332;2023-11-22T02:30:35;102248.97;;;2.03;100.00
75640;BME280;64233;51.486;6.332;2023-11-22T02:33:00;102235.19;;;1.99;100.00
75640;BME280;64233;51.486;6.332;2023-11-22T02:35:26;102237.19;;;1.97;100.00
75640;BME280;64233;51.486;6.332;2023-11-22T02:37:54;102246.59;;;2.00;100.00
75640;BME280;64233;51.486;6.332;2023-11-22T02:40:21;102241.00;;;2.03;100.00
75640;BME280;64233;51.486;6.332;2023-11-22T02:42:51;102228.75;;;2.02;100.00
75640;BME280;64233;51.486;6.332;2023-11-22T02:45:18;102256.22;;;2.01;100.00
75640;BME280;64233;51.486;6.332;2023-11-22T02:47:44;102242.97;;;2.01;100.00
75640;BME280;64233;51.486;6.332;2023-11-22T02:50:15;102249.94;;;2.02;100.00
75640;BME280;64233;51.486;6.332;2023-11-22T02:52:41;102281.72;;;2.02;100.00
75640;BME280;64233;51.486;6.332;2023-11-22T02:55:07;102290.34;;;2.04;100.00
75640;BME280;64233;51.486;6.332;2023-11-22T02:57:34;102282.53;;;2.02;100.00
75640;BME280;64233;51.486;6.332;2023-11-22T03:00:00;102271.13;;;2.02;100.00
75640;BME280;64233;51.486;6.332;2023-11-22T03:02:25;102320.63;;;2.01;100.00
75640;BME280;64233;51.486;6.332;2023-11-22T03:04:51;102329.72;;;1.99;100.00
75640;BME280;64233;51.486;6.332;2023-11-22T03:07:17;102289.31;;;1.97;100.00
75640;BME280;64233;51.486;6.332;2023-11-22T03:09:42;102315.94;;;1.95;100.00
75640;BME280;64233;51.486;6.332;2023-11-22T03:12:09;102310.50;;;1.97;100.00
75640;BME280;64233;51.486;6.332;2023-11-22T03:14:35;102300.84;;;1.87;100.00
75640;BME280;64233;51.486;6.332;2023-11-22T03:17:00;102316.88;;;1.86;100.00
75640;BME280;64233;51.486;6.332;2023-11-22T03:19:26;102311.06;;;1.82;100.00
75640;BME280;64233;51.486;6.332;2023-11-22T03:21:51;102314.84;;;1.80;100.00
75640;BME280;64233;51.486;6.332;2023-11-22T03:24:17;102312.66;;;1.75;100.00
75640;BME280;64233;51.486;6.332;2023-11-22T03:26:42;102327.19;;;1.71;100.00
75640;BME280;64233;51.486;6.332;2023-11-22T03:29:07;102345.06;;;1.69;100.00
75640;BME280;64233;51.486;6.332;2023-11-22T03:31:33;102308.91;;;1.60;100.00
75640;BME280;64233;51.486;6.332;2023-11-22T03:33:58;102323.50;;;1.64;100.00
75640;BME280;64233;51.486;6.332;2023-11-22T03:36:23;102317.97;;;1.57;100.00
75640;BME280;64233;51.486;6.332;2023-11-22T03:38:49;102328.50;;;1.49;100.00
75640;BME280;64233;51.486;6.332;2023-11-22T03:41:15;102345.59;;;1.36;100.00
75640;BME280;64233;51.486;6.332;2023-11-22T03:43:40;102349.84;;;1.29;100.00
75640;BME280;64233;51.486;6.332;2023-11-22T03:46:05;102392.31;;;1.28;100.00
75640;BME280;64233;51.486;6.332;2023-11-22T03:48:31;102407.34;;;1.27;100.00
75640;BME280;64233;51.486;6.332;2023-11-22T03:50:56;102419.75;;;1.27;100.00
75640;BME280;64233;51.486;6.332;2023-11-22T03:53:22;102440.66;;;1.20;100.00
75640;BME280;64233;51.486;6.332;2023-11-22T03:55:49;102496.53;;;1.17;100.00
75640;BME280;64233;51.486;6.332;2023-11-22T03:58:15;102504.47;;;1.17;100.00
75640;BME280;64233;51.486;6.332;2023-11-22T04:00:41;102548.88;;;1.13;100.00
75640;BME280;64233;51.486;6.332;2023-11-22T04:03:06;102573.13;;;1.09;100.00
75640;BME280;64233;51.486;6.332;2023-11-22T04:05:32;102598.75;;;1.08;100.00
75640;BME280;64233;51.486;6.332;2023-11-22T04:07:57;102612.66;;;1.00;100.00
75640;BME280;64233;51.486;6.332;2023-11-22T04:10:23;102631.06;;;0.92;100.00
75640;BME280;64233;51.486;6.332;2023-11-22T04:12:49;102659.72;;;0.97;100.00
75640;BME280;64233;51.486;6.332;2023-11-22T04:15:14;102663.34;;;0.96;100.00
75640;BME280;64233;51.486;6.332;2023-11-22T04:17:41;102696.47;;;1.00;100.00
75640;BME280;64233;51.486;6.332;2023-11-22T04:20:07;102749.94;;;1.03;100.00
75640;BME280;64233;51.486;6.332;2023-11-22T04:22:34;102777.34;;;1.02;100.00
75640;BME280;64233;51.486;6.332;2023-11-22T04:24:59;102800.31;;;1.02;100.00
75640;BME280;64233;51.486;6.332;2023-11-22T04:27:26;102820.09;;;0.98;100.00
75640;BME280;64233;51.486;6.332;2023-11-22T04:29:51;102874.09;;;0.95;100.00
75640;BME280;64233;51.486;6.332;2023-11-22T04:32:16;102965.78;;;0.95;100.00
75640;BME280;64233;51.486;6.332;2023-11-22T04:34:42;102945.63;;;0.94;100.00
75640;BME280;64233;51.486;6.332;2023-11-22T04:37:07;102944.09;;;0.91;100.00
75640;BME280;64233;51.486;6.332;2023-11-22T04:39:32;102947.16;;;0.96;100.00
75640;BME280;64233;51.486;6.332;2023-11-22T04:41:57;102932.00;;;0.98;100.00
75640;BME280;64233;51.486;6.332;2023-11-22T04:44:23;102940.06;;;0.97;100.00
75640;BME280;64233;51.486;6.332;2023-11-22T04:46:48;102975.22;;;0.88;100.00
75640;BME280;64233;51.486;6.332;2023-11-22T04:49:13;102950.19;;;0.92;100.00
75640;BME280;64233;51.486;6.332;2023-11-22T04:51:39;102934.19;;;0.93;100.00
75640;BME280;64233;51.486;6.332;2023-11-22T04:54:04;103261.19;;;0.94;100.00
75640;BME280;64233;51.486;6.332;2023-11-22T04:56:29;102712.47;;;0.98;100.00
75640;BME280;64233;51.486;6.332;2023-11-22T04:58:55;102902.75;;;1.00;100.00
75640;BME280;64233;51.486;6.332;2023-11-22T05:01:21;102969.97;;;0.97;100.00
75640;BME280;64233;51.486;6.332;2023-11-22T05:03:46;103037.34;;;0.93;100.00
75640;BME280;64233;51.486;6.332;2023-11-22T05:06:12;103136.19;;;0.92;100.00
75640;BME280;64233;51.486;6.332;2023-11-22T05:08:37;103186.53;;;0.91;100.00
75640;BME280;64233;51.486;6.332;2023-11-22T05:11:03;103504.88;;;0.90;100.00
75640;BME280;64233;51.486;6.332;2023-11-22T05:13:28;102990.72;;;0.92;100.00
75640;BME280;64233;51.486;6.332;2023-11-22T05:15:54;103493.09;;;0.94;100.00
75640;BME280;64233;51.486;6.332;2023-11-22T05:18:20;103031.91;;;0.95;100.00
75640;BME280;64233;51.486;6.332;2023-11-22T05:20:46;103053.06;;;0.95;100.00
75640;BME280;64233;51.486;6.332;2023-11-22T05:23:13;103061.00;;;0.95;100.00
75640;BME280;64233;51.486;6.332;2023-11-22T05:25:39;103016.19;;;0.93;100.00
75640;BME280;64233;51.486;6.332;2023-11-22T05:28:04;102998.66;;;0.92;100.00
75640;BME280;64233;51.486;6.332;2023-11-22T05:30:29;102991.00;;;0.99;100.00
75640;BME280;64233;51.486;6.332;2023-11-22T05:32:55;102988.50;;;0.97;100.00
75640;BME280;64233;51.486;6.332;2023-11-22T05:35:21;102983.47;;;0.94;100.00
75640;BME280;64233;51.486;6.332;2023-11-22T05:37:47;102966.66;;;0.95;100.00
75640;BME280;64233;51.486;6.332;2023-11-22T05:40:12;102971.34;;;0.92;100.00
75640;BME280;64233;51.486;6.332;2023-11-22T05:42:40;103057.66;;;0.93;100.00
75640;BME280;64233;51.486;6.332;2023-11-22T05:45:06;102993.59;;;0.89;100.00
75640;BME280;64233;51.486;6.332;2023-11-22T05:47:33;103032.13;;;0.82;100.00
75640;BME280;64233;51.486;6.332;2023-11-22T05:49:58;102999.69;;;0.80;100.00
75640;BME280;64233;51.486;6.332;2023-11-22T05:52:23;103010.28;;;0.80;100.00
75640;BME280;64233;51.486;6.332;2023-11-22T05:54:49;102990.81;;;0.81;100.00
75640;BME280;64233;51.486;6.332;2023-11-22T05:57:14;102978.69;;;0.78;100.00
75640;BME280;64233;51.486;6.332;2023-11-22T05:59:40;103017.63;;;0.76;100.00
75640;BME280;64233;51.486;6.332;2023-11-22T06:02:06;102957.81;;;0.75;100.00
75640;BME280;64233;51.486;6.332;2023-11-22T06:04:31;102997.97;;;0.69;100.00
75640;BME280;64233;51.486;6.332;2023-11-22T06:06:56;102945.34;;;0.66;100.00
75640;BME280;64233;51.486;6.332;2023-11-22T06:09:22;102703.13;;;0.65;100.00
75640;BME280;64233;51.486;6.332;2023-11-22T06:11:48;102402.09;;;0.62;100.00
75640;BME280;64233;51.486;6.332;2023-11-22T06:14:14;102400.44;;;0.61;100.00
75640;BME280;64233;51.486;6.332;2023-11-22T06:16:42;102646.78;;;0.55;100.00
75640;BME280;64233;51.486;6.332;2023-11-22T06:19:07;102414.53;;;0.51;100.00
75640;BME280;64233;51.486;6.332;2023-11-22T06:21:33;103019.13;;;0.48;100.00
75640;BME280;64233;51.486;6.332;2023-11-22T06:23:59;102511.19;;;0.44;100.00
75640;BME280;64233;51.486;6.332;2023-11-22T06:26:24;102503.28;;;0.44;100.00
75640;BME280;64233;51.486;6.332;2023-11-22T06:28:50;102552.09;;;0.40;100.00
75640;BME280;64233;51.486;6.332;2023-11-22T06:31:15;102455.59;;;0.36;100.00
75640;BME280;64233;51.486;6.332;2023-11-22T06:33:40;102633.69;;;0.33;100.00
75640;BME280;64233;51.486;6.332;2023-11-22T06:36:06;102401.50;;;0.30;100.00
75640;BME280;64233;51.486;6.332;2023-11-22T06:38:31;102415.69;;;0.29;100.00
75640;BME280;64233;51.486;6.332;2023-11-22T06:40:57;102415.16;;;0.26;100.00
75640;BME280;64233;51.486;6.332;2023-11-22T06:43:22;102412.78;;;0.23;100.00
75640;BME280;64233;51.486;6.332;2023-11-22T06:45:48;102410.97;;;0.23;100.00
75640;BME280;64233;51.486;6.332;2023-11-22T06:48:13;102435.03;;;0.20;100.00
75640;BME280;64233;51.486;6.332;2023-11-22T06:50:39;102457.97;;;0.20;100.00
75640;BME280;64233;51.486;6.332;2023-11-22T06:53:05;102413.78;;;0.12;100.00
75640;BME280;64233;51.486;6.332;2023-11-22T06:55:31;102408.63;;;0.10;100.00
75640;BME280;64233;51.486;6.332;2023-11-22T06:57:58;102407.38;;;0.14;100.00
75640;BME280;64233;51.486;6.332;2023-11-22T07:00:23;102440.72;;;0.06;100.00
75640;BME280;64233;51.486;6.332;2023-11-22T07:02:48;102418.09;;;0.03;100.00
75640;BME280;64233;51.486;6.332;2023-11-22T07:05:13;102465.50;;;0.05;100.00
75640;BME280;64233;51.486;6.332;2023-11-22T07:07:39;102443.25;;;0.07;100.00
75640;BME280;64233;51.486;6.332;2023-11-22T07:10:04;102419.34;;;0.09;100.00
75640;BME280;64233;51.486;6.332;2023-11-22T07:12:33;102402.50;;;0.10;100.00
75640;BME280;64233;51.486;6.332;2023-11-22T07:15:02;102433.09;;;0.12;100.00
75640;BME280;64233;51.486;6.332;2023-11-22T07:17:28;102432.94;;;0.14;100.00
75640;BME280;64233;51.486;6.332;2023-11-22T07:19:54;102427.66;;;0.14;100.00
75640;BME280;64233;51.486;6.332;2023-11-22T07:22:19;102428.66;;;0.13;100.00
75640;BME280;64233;51.486;6.332;2023-11-22T07:24:47;102406.53;;;0.14;100.00
75640;BME280;64233;51.486;6.332;2023-11-22T07:27:17;102397.34;;;0.18;100.00
75640;BME280;64233;51.486;6.332;2023-11-22T07:29:43;102402.22;;;0.23;100.00
75640;BME280;64233;51.486;6.332;2023-11-22T07:32:09;102390.66;;;0.33;100.00
75640;BME280;64233;51.486;6.332;2023-11-22T07:34:35;102409.69;;;0.47;100.00
75640;BME280;64233;51.486;6.332;2023-11-22T07:37:01;102533.44;;;0.42;100.00
75640;BME280;64233;51.486;6.332;2023-11-22T07:39:27;102360.81;;;0.51;100.00
75640;BME280;64233;51.486;6.332;2023-11-22T07:41:55;102396.69;;;0.54;100.00
75640;BME280;64233;51.486;6.332;2023-11-22T07:44:22;102390.16;;;0.58;100.00
75640;BME280;64233;51.486;6.332;2023-11-22T07:46:47;102387.06;;;0.62;100.00
75640;BME280;64233;51.486;6.332;2023-11-22T07:49:13;102390.41;;;0.64;100.00
75640;BME280;64233;51.486;6.332;2023-11-22T07:51:41;102372.44;;;0.68;100.00
75640;BME280;64233;51.486;6.332;2023-11-22T07:54:07;102369.09;;;0.76;100.00
75640;BME280;64233;51.486;6.332;2023-11-22T07:56:32;102388.97;;;0.80;100.00
75640;BME280;64233;51.486;6.332;2023-11-22T07:58:58;102376.97;;;0.85;100.00
75640;BME280;64233;51.486;6.332;2023-11-22T08:01:23;102381.66;;;0.92;100.00
75640;BME280;64233;51.486;6.332;2023-11-22T08:03:50;102390.75;;;0.51;100.00
75640;BME280;64233;51.486;6.332;2023-11-22T08:06:17;102421.78;;;0.40;100.00
75640;BME280;64233;51.486;6.332;2023-11-22T08:08:42;102448.59;;;0.45;100.00
75640;BME280;64233;51.486;6.332;2023-11-22T08:11:10;102419.97;;;0.50;100.00
75640;BME280;64233;51.486;6.332;2023-11-22T08:13:43;102421.56;;;0.61;100.00
75640;BME280;64233;51.486;6.332;2023-11-22T08:16:10;102575.84;;;0.70;100.00
75640;BME280;64233;51.486;6.332;2023-11-22T08:18:38;102544.69;;;0.54;100.00
75640;BME280;64233;51.486;6.332;2023-11-22T08:21:04;102422.97;;;0.55;100.00
75640;BME280;64233;51.486;6.332;2023-11-22T08:23:29;102452.88;;;0.65;100.00
75640;BME280;64233;51.486;6.332;2023-11-22T08:25:57;102454.50;;;0.76;100.00
75640;BME280;64233;51.486;6.332;2023-11-22T08:28:23;102450.16;;;0.85;100.00
75640;BME280;64233;51.486;6.332;2023-11-22T08:30:48;102452.53;;;0.88;100.00
75640;BME280;64233;51.486;6.332;2023-11-22T08:33:13;102466.38;;;1.00;100.00
75640;BME280;64233;51.486;6.332;2023-11-22T08:35:39;102468.16;;;1.09;100.00
75640;BME280;64233;51.486;6.332;2023-11-22T08:38:04;102480.81;;;1.15;100.00
75640;BME280;64233;51.486;6.332;2023-11-22T08:40:33;102470.66;;;1.11;100.00
75640;BME280;64233;51.486;6.332;2023-11-22T08:43:02;102453.13;;;1.10;100.00
75640;BME280;64233;51.486;6.332;2023-11-22T08:45:29;102459.22;;;1.10;100.00
75640;BME280;64233;51.486;6.332;2023-11-22T08:47:55;102462.69;;;1.20;100.00
75640;BME280;64233;51.486;6.332;2023-11-22T08:50:20;102472.53;;;1.28;100.00
75640;BME280;64233;51.486;6.332;2023-11-22T08:52:46;102481.44;;;1.27;100.00
75640;BME280;64233;51.486;6.332;2023-11-22T08:55:12;102475.72;;;1.50;100.00
75640;BME280;64233;51.486;6.332;2023-11-22T08:57:40;102458.06;;;1.68;100.00
75640;BME280;64233;51.486;6.332;2023-11-22T09:00:06;102474.47;;;1.72;100.00
75640;BME280;64233;51.486;6.332;2023-11-22T09:02:35;102491.41;;;1.61;100.00
75640;BME280;64233;51.486;6.332;2023-11-22T09:05:02;102480.34;;;1.66;100.00
75640;BME280;64233;51.486;6.332;2023-11-22T09:07:30;102483.94;;;1.75;100.00
75640;BME280;64233;51.486;6.332;2023-11-22T09:09:56;102466.16;;;1.85;100.00
75640;BME280;64233;51.486;6.332;2023-11-22T09:12:23;102496.81;;;1.87;100.00
75640;BME280;64233;51.486;6.332;2023-11-22T09:14:49;102519.22;;;1.93;100.00
75640;BME280;64233;51.486;6.332;2023-11-22T09:17:14;102530.13;;;1.90;100.00
75640;BME280;64233;51.486;6.332;2023-11-22T09:19:39;102522.13;;;1.72;100.00
75640;BME280;64233;51.486;6.332;2023-11-22T09:22:05;102546.22;;;1.79;100.00
75640;BME280;64233;51.486;6.332;2023-11-22T09:24:33;102557.78;;;1.78;100.00
75640;BME280;64233;51.486;6.332;2023-11-22T09:27:00;102579.94;;;1.77;100.00
75640;BME280;64233;51.486;6.332;2023-11-22T09:29:27;102610.13;;;1.84;100.00
75640;BME280;64233;51.486;6.332;2023-11-22T09:31:52;102597.66;;;1.94;100.00
75640;BME280;64233;51.486;6.332;2023-11-22T09:34:18;102590.06;;;2.09;100.00
75640;BME280;64233;51.486;6.332;2023-11-22T09:36:43;102584.75;;;2.09;100.00
75640;BME280;64233;51.486;6.332;2023-11-22T09:39:09;102598.84;;;2.28;100.00
75640;BME280;64233;51.486;6.332;2023-11-22T09:41:37;102598.47;;;2.40;100.00
75640;BME280;64233;51.486;6.332;2023-11-22T09:44:04;102573.88;;;2.48;100.00
75640;BME280;64233;51.486;6.332;2023-11-22T09:46:30;102646.94;;;2.51;100.00
75640;BME280;64233;51.486;6.332;2023-11-22T09:48:56;102609.25;;;2.57;100.00
75640;BME280;64233;51.486;6.332;2023-11-22T09:51:29;102619.69;;;2.40;100.00
75640;BME280;64233;51.486;6.332;2023-11-22T09:53:59;102609.53;;;2.36;100.00
75640;BME280;64233;51.486;6.332;2023-11-22T09:56:27;102607.72;;;2.36;100.00
75640;BME280;64233;51.486;6.332;2023-11-22T09:58:54;102611.38;;;2.35;100.00
75640;BME280;64233;51.486;6.332;2023-11-22T10:01:23;102639.38;;;2.38;100.00
75640;BME280;64233;51.486;6.332;2023-11-22T10:03:49;102625.88;;;2.49;100.00
75640;BME280;64233;51.486;6.332;2023-11-22T10:06:15;102623.72;;;2.63;100.00
75640;BME280;64233;51.486;6.332;2023-11-22T10:08:41;102622.63;;;2.73;100.00
75640;BME280;64233;51.486;6.332;2023-11-22T10:11:07;102624.22;;;2.84;100.00
75640;BME280;64233;51.486;6.332;2023-11-22T10:13:33;102636.84;;;2.90;100.00
75640;BME280;64233;51.486;6.332;2023-11-22T10:16:18;102630.56;;;2.73;100.00
75640;BME280;64233;51.486;6.332;2023-11-22T10:18:46;102603.97;;;2.83;100.00
75640;BME280;64233;51.486;6.332;2023-11-22T10:21:23;102606.03;;;2.89;100.00
75640;BME280;64233;51.486;6.332;2023-11-22T10:24:01;102611.06;;;3.01;100.00
75640;BME280;64233;51.486;6.332;2023-11-22T10:26:27;102597.44;;;2.96;100.00
75640;BME280;64233;51.486;6.332;2023-11-22T10:28:54;102626.75;;;3.12;100.00
75640;BME280;64233;51.486;6.332;2023-11-22T10:31:20;102595.19;;;3.09;100.00
75640;BME280;64233;51.486;6.332;2023-11-22T10:33:47;102481.78;;;3.11;100.00
75640;BME280;64233;51.486;6.332;2023-11-22T10:36:13;102465.28;;;3.34;100.00
75640;BME280;64233;51.486;6.332;2023-11-22T10:38:40;102428.75;;;3.36;100.00
75640;BME280;64233;51.486;6.332;2023-11-22T10:41:07;102387.97;;;3.45;100.00
75640;BME280;64233;51.486;6.332;2023-11-22T10:43:34;102389.16;;;3.59;100.00
75640;BME280;64233;51.486;6.332;2023-11-22T10:46:01;102348.81;;;3.64;100.00
75640;BME280;64233;51.486;6.332;2023-11-22T10:48:27;102318.94;;;3.70;100.00
75640;BME280;64233;51.486;6.332;2023-11-22T10:50:55;102289.06;;;3.76;100.00
75640;BME280;64233;51.486;6.332;2023-11-22T10:53:29;102230.47;;;3.77;100.00
75640;BME280;64233;51.486;6.332;2023-11-22T10:56:16;102180.09;;;3.92;100.00
75640;BME280;64233;51.486;6.332;2023-11-22T10:58:48;102094.22;;;3.69;100.00
75640;BME280;64233;51.486;6.332;2023-11-22T11:01:15;102037.47;;;3.93;100.00
75640;BME280;64233;51.486;6.332;2023-11-22T11:03:55;102010.81;;;4.01;100.00
75640;BME280;64233;51.486;6.332;2023-11-22T11:06:26;101970.41;;;4.14;100.00
75640;BME280;64233;51.486;6.332;2023-11-22T11:08:59;101950.34;;;4.26;100.00
75640;BME280;64233;51.486;6.332;2023-11-22T11:11:25;101928.44;;;4.39;100.00
75640;BME280;64233;51.486;6.332;2023-11-22T11:13:51;101917.19;;;4.37;100.00
75640;BME280;64233;51.486;6.332;2023-11-22T11:16:18;101875.72;;;4.28;100.00
75640;BME280;64233;51.486;6.332;2023-11-22T11:18:44;101838.44;;;4.21;100.00
75640;BME280;64233;51.486;6.332;2023-11-22T11:21:09;101824.97;;;4.38;100.00
75640;BME280;64233;51.486;6.332;2023-11-22T11:23:39;101814.16;;;4.24;100.00
75640;BME280;64233;51.486;6.332;2023-11-22T11:26:14;101771.59;;;4.39;100.00
75640;BME280;64233;51.486;6.332;2023-11-22T11:28:44;101766.13;;;4.26;100.00
75640;BME280;64233;51.486;6.332;2023-11-22T11:31:11;101725.88;;;4.29;100.00
75640;BME280;64233;51.486;6.332;2023-11-22T11:36:27;101661.78;;;4.39;100.00
75640;BME280;64233;51.486;6.332;2023-11-22T11:38:54;101453.97;;;4.28;100.00
75640;BME280;64233;51.486;6.332;2023-11-22T11:41:29;101324.72;;;4.27;100.00
75640;BME280;64233;51.486;6.332;2023-11-22T11:43:56;101255.88;;;4.33;100.00
75640;BME280;64233;51.486;6.332;2023-11-22T11:46:22;101227.88;;;4.37;100.00
75640;BME280;64233;51.486;6.332;2023-11-22T11:48:49;101199.28;;;4.45;100.00
75640;BME280;64233;51.486;6.332;2023-11-22T11:51:16;101128.34;;;4.59;100.00
75640;BME280;64233;51.486;6.332;2023-11-22T11:53:42;101101.34;;;4.69;100.00
75640;BME280;64233;51.486;6.332;2023-11-22T11:56:09;101090.09;;;4.80;100.00
75640;BME280;64233;51.486;6.332;2023-11-22T11:58:34;101077.22;;;4.64;100.00
75640;BME280;64233;51.486;6.332;2023-11-22T12:01:00;101080.28;;;4.61;100.00
75640;BME280;64233;51.486;6.332;2023-11-22T12:03:25;101078.63;;;4.46;100.00
75640;BME280;64233;51.486;6.332;2023-11-22T12:05:50;101095.16;;;4.35;100.00
75640;BME280;64233;51.486;6.332;2023-11-22T12:08:16;101114.63;;;4.42;100.00
75640;BME280;64233;51.486;6.332;2023-11-22T12:10:42;101132.19;;;4.43;100.00
75640;BME280;64233;51.486;6.332;2023-11-22T12:13:08;101180.22;;;4.35;100.00
75640;BME280;64233;51.486;6.332;2023-11-22T12:15:34;101244.19;;;4.34;100.00
75640;BME280;64233;51.486;6.332;2023-11-22T12:18:00;101272.66;;;4.40;100.00
75640;BME280;64233;51.486;6.332;2023-11-22T12:20:26;101349.75;;;4.40;100.00
75640;BME280;64233;51.486;6.332;2023-11-22T12:22:57;101568.81;;;4.45;100.00
75640;BME280;64233;51.486;6.332;2023-11-22T12:25:22;101642.22;;;4.46;100.00
75640;BME280;64233;51.486;6.332;2023-11-22T12:27:54;101699.13;;;4.52;100.00
75640;BME280;64233;51.486;6.332;2023-11-22T12:32:55;101803.59;;;4.61;100.00
75640;BME280;64233;51.486;6.332;2023-11-22T12:35:22;101875.13;;;4.71;100.00
75640;BME280;64233;51.486;6.332;2023-11-22T12:37:47;101915.09;;;4.77;100.00
75640;BME280;64233;51.486;6.332;2023-11-22T12:40:13;102017.47;;;4.81;100.00
75640;BME280;64233;51.486;6.332;2023-11-22T12:42:48;102147.28;;;4.86;100.00
75640;BME280;64233;51.486;6.332;2023-11-22T12:45:17;102265.50;;;4.92;100.00
75640;BME280;64233;51.486;6.332;2023-11-22T12:47:43;102366.41;;;5.02;100.00
75640;BME280;64233;51.486;6.332;2023-11-22T12:50:29;102445.94;;;5.05;100.00
75640;BME280;64233;51.486;6.332;2023-11-22T12:52:55;102557.06;;;4.94;100.00